sensor_id;sensor_type;location;lat;lon;timestamp;P1;durP1;ratioP1;P2;durP2;ratioP2
7383;SDS011;3733;47.994;8.820;2023-11-19T00:01:35;5.90;;;5.00;;
7383;SDS011;3733;47.994;8.820;2023-11-19T00:04:01;6.83;;;4.67;;
7383;SDS011;3733;47.994;8.820;2023-11-19T00:06:29;5.60;;;4.57;;
7383;SDS011;3733;47.994;8.820;2023-11-19T00:08:55;6.13;;;4.60;;
7383;SDS011;3733;47.994;8.820;2023-11-19T00:11:21;5.97;;;4.87;;
7383;SDS011;3733;47.994;8.820;2023-11-19T00:13:46;6.57;;;4.53;;
7383;SDS011;3733;47.994;8.820;2023-11-19T00:16:12;5.33;;;4.83;;
7383;SDS011;3733;47.994;8.820;2023-11-19T00:18:37;5.40;;;4.40;;
7383;SDS011;3733;47.994;8.820;2023-11-19T00:21:03;6.30;;;4.70;;
7383;SDS011;3733;47.994;8.820;2023-11-19T00:23:29;7.30;;;5.40;;
7383;SDS011;3733;47.994;8.820;2023-11-19T00:25:54;5.17;;;4.60;;
7383;SDS011;3733;47.994;8.820;2023-11-19T00:28:20;7.10;;;5.20;;
7383;SDS011;3733;47.994;8.820;2023-11-19T00:30:45;5.80;;;4.77;;
7383;SDS011;3733;47.994;8.820;2023-11-19T00:33:11;6.17;;;4.87;;
7383;SDS011;3733;47.994;8.820;2023-11-19T00:35:37;5.80;;;4.60;;
7383;SDS011;3733;47.994;8.820;2023-11-19T00:38:02;5.73;;;4.50;;
7383;SDS011;3733;47.994;8.820;2023-11-19T00:40:29;5.13;;;4.10;;
7383;SDS011;3733;47.994;8.820;2023-11-19T00:42:54;8.10;;;4.53;;
7383;SDS011;3733;47.994;8.820;2023-11-19T00:45:20;5.77;;;4.60;;
7383;SDS011;3733;47.994;8.820;2023-11-19T00:47:45;5.47;;;4.10;;
7383;SDS011;3733;47.994;8.820;2023-11-19T00:50:11;3.90;;;3.50;;
7383;SDS011;3733;47.994;8.820;2023-11-19T00:52:38;4.50;;;3.90;;
7383;SDS011;3733;47.994;8.820;2023-11-19T00:55:04;4.70;;;4.03;;
7383;SDS011;3733;47.994;8.820;2023-11-19T00:57:30;5.40;;;3.60;;
7383;SDS011;3733;47.994;8.820;2023-11-19T00:59:58;5.33;;;4.37;;
7383;SDS011;3733;47.994;8.820;2023-11-19T01:02:24;5.30;;;4.40;;
7383;SDS011;3733;47.994;8.820;2023-11-19T01:04:50;5.47;;;4.43;;
7383;SDS011;3733;47.994;8.820;2023-11-19T01:07:15;4.90;;;4.40;;
7383;SDS011;3733;47.994;8.820;2023-11-19T01:09:42;5.40;;;4.40;;
7383;SDS011;3733;47.994;8.820;2023-11-19T01:12:07;5.70;;;4.00;;
7383;SDS011;3733;47.994;8.820;2023-11-19T01:14:35;7.33;;;4.63;;
7383;SDS011;3733;47.994;8.820;2023-11-19T01:17:01;6.03;;;4.13;;
7383;SDS011;3733;47.994;8.820;2023-11-19T01:19:27;4.63;;;3.80;;
7383;SDS011;3733;47.994;8.820;2023-11-19T01:21:53;5.83;;;3.63;;
7383;SDS011;3733;47.994;8.820;2023-11-19T01:24:19;5.37;;;3.00;;
7383;SDS011;3733;47.994;8.820;2023-11-19T01:26:45;2.90;;;2.60;;
7383;SDS011;3733;47.994;8.820;2023-11-19T01:29:14;3.67;;;2.90;;
7383;SDS011;3733;47.994;8.820;2023-11-19T01:31:43;2.80;;;2.50;;
7383;SDS011;3733;47.994;8.820;2023-11-19T01:34:10;2.80;;;2.60;;
7383;SDS011;3733;47.994;8.820;2023-11-19T01:36:36;7.93;;;2.60;;
7383;SDS011;3733;47.994;8.820;2023-11-19T01:39:02;2.33;;;2.13;;
7383;SDS011;3733;47.994;8.820;2023-11-19T01:41:29;2.60;;;2.40;;
7383;SDS011;3733;47.994;8.820;2023-11-19T01:43:59;2.50;;;2.30;;
7383;SDS011;3733;47.994;8.820;2023-11-19T01:46:25;3.97;;;2.97;;
7383;SDS011;3733;47.994;8.820;2023-11-19T01:48:51;2.60;;;2.40;;
7383;SDS011;3733;47.994;8.820;2023-11-19T01:51:17;2.50;;;2.30;;
7383;SDS011;3733;47.994;8.820;2023-11-19T01:53:43;5.53;;;2.67;;
7383;SDS011;3733;47.994;8.820;2023-11-19T01:56:10;3.20;;;2.53;;
7383;SDS011;3733;47.994;8.820;2023-11-19T01:58:38;4.27;;;3.10;;
7383;SDS011;3733;47.994;8.820;2023-11-19T02:01:05;3.40;;;2.97;;
7383;SDS011;3733;47.994;8.820;2023-11-19T02:03:32;4.33;;;3.40;;
7383;SDS011;3733;47.994;8.820;2023-11-19T02:06:02;6.30;;;3.80;;
7383;SDS011;3733;47.994;8.820;2023-11-19T02:08:29;4.43;;;3.40;;
7383;SDS011;3733;47.994;8.820;2023-11-19T02:10:55;4.13;;;3.30;;
7383;SDS011;3733;47.994;8.820;2023-11-19T02:13:22;4.87;;;3.90;;
7383;SDS011;3733;47.994;8.820;2023-11-19T02:15:51;5.47;;;3.50;;
7383;SDS011;3733;47.994;8.820;2023-11-19T02:18:18;4.40;;;3.70;;
7383;SDS011;3733;47.994;8.820;2023-11-19T02:20:47;5.63;;;4.20;;
7383;SDS011;3733;47.994;8.820;2023-11-19T02:23:16;5.50;;;4.10;;
7383;SDS011;3733;47.994;8.820;2023-11-19T02:25:57;5.33;;;4.07;;
7383;SDS011;3733;47.994;8.820;2023-11-19T02:28:25;5.67;;;4.30;;
7383;SDS011;3733;47.994;8.820;2023-11-19T02:30:52;5.70;;;3.60;;
7383;SDS011;3733;47.994;8.820;2023-11-19T02:33:18;6.00;;;3.73;;
7383;SDS011;3733;47.994;8.820;2023-11-19T02:35:43;4.20;;;3.60;;
7383;SDS011;3733;47.994;8.820;2023-11-19T02:38:09;4.50;;;3.30;;
7383;SDS011;3733;47.994;8.820;2023-11-19T02:40:35;4.40;;;3.80;;
7383;SDS011;3733;47.994;8.820;2023-11-19T02:43:01;4.60;;;3.90;;
7383;SDS011;3733;47.994;8.820;2023-11-19T02:45:29;3.30;;;2.80;;
7383;SDS011;3733;47.994;8.820;2023-11-19T02:47:56;4.10;;;3.40;;
7383;SDS011;3733;47.994;8.820;2023-11-19T02:50:21;3.83;;;3.23;;
7383;SDS011;3733;47.994;8.820;2023-11-19T02:52:50;5.03;;;3.67;;
7383;SDS011;3733;47.994;8.820;2023-11-19T02:55:18;6.00;;;3.57;;
7383;SDS011;3733;47.994;8.820;2023-11-19T02:57:44;4.10;;;3.30;;
7383;SDS011;3733;47.994;8.820;2023-11-19T03:02:43;5.13;;;3.87;;
7383;SDS011;3733;47.994;8.820;2023-11-19T03:05:13;4.13;;;3.17;;
7383;SDS011;3733;47.994;8.820;2023-11-19T03:07:43;4.13;;;3.23;;
7383;SDS011;3733;47.994;8.820;2023-11-19T03:10:12;3.80;;;2.97;;
7383;SDS011;3733;47.994;8.820;2023-11-19T03:12:41;5.40;;;3.03;;
7383;SDS011;3733;47.994;8.820;2023-11-19T03:15:08;5.07;;;3.60;;
7383;SDS011;3733;47.994;8.820;2023-11-19T03:17:40;4.97;;;3.20;;
7383;SDS011;3733;47.994;8.820;2023-11-19T03:20:07;3.80;;;3.40;;
7383;SDS011;3733;47.994;8.820;2023-11-19T03:22:42;4.00;;;3.27;;
7383;SDS011;3733;47.994;8.820;2023-11-19T03:25:08;4.73;;;3.60;;
7383;SDS011;3733;47.994;8.820;2023-11-19T03:27:35;5.20;;;4.00;;
7383;SDS011;3733;47.994;8.820;2023-11-19T03:30:02;3.87;;;3.47;;
7383;SDS011;3733;47.994;8.820;2023-11-19T03:32:31;4.60;;;3.27;;
7383;SDS011;3733;47.994;8.820;2023-11-19T03:34:57;4.73;;;3.40;;
7383;SDS011;3733;47.994;8.820;2023-11-19T03:37:24;3.20;;;2.90;;
7383;SDS011;3733;47.994;8.820;2023-11-19T03:39:51;4.37;;;3.00;;
7383;SDS011;3733;47.994;8.820;2023-11-19T03:42:18;3.13;;;2.83;;
7383;SDS011;3733;47.994;8.820;2023-11-19T03:44:45;3.43;;;3.13;;
7383;SDS011;3733;47.994;8.820;2023-11-19T03:47:11;4.10;;;3.10;;
7383;SDS011;3733;47.994;8.820;2023-11-19T03:49:37;4.83;;;3.17;;
7383;SDS011;3733;47.994;8.820;2023-11-19T03:52:02;6.80;;;3.50;;
7383;SDS011;3733;47.994;8.820;2023-11-19T03:54:28;4.00;;;2.83;;
7383;SDS011;3733;47.994;8.820;2023-11-19T03:56:54;4.10;;;3.50;;
7383;SDS011;3733;47.994;8.820;2023-11-19T03:59:19;3.30;;;3.00;;
7383;SDS011;3733;47.994;8.820;2023-11-19T04:01:45;4.27;;;3.20;;
7383;SDS011;3733;47.994;8.820;2023-11-19T04:04:11;4.00;;;3.20;;
7383;SDS011;3733;47.994;8.820;2023-11-19T04:06:37;4.30;;;3.40;;
7383;SDS011;3733;47.994;8.820;2023-11-19T04:09:02;4.43;;;3.57;;
7383;SDS011;3733;47.994;8.820;2023-11-19T04:11:28;9.10;;;4.20;;
7383;SDS011;3733;47.994;8.820;2023-11-19T04:13:54;4.50;;;4.00;;
7383;SDS011;3733;47.994;8.820;2023-11-19T04:16:25;4.73;;;3.57;;
7383;SDS011;3733;47.994;8.820;2023-11-19T04:18:53;4.73;;;3.53;;
7383;SDS011;3733;47.994;8.820;2023-11-19T04:21:18;5.33;;;4.63;;
7383;SDS011;3733;47.994;8.820;2023-11-19T04:23:44;4.17;;;3.77;;
7383;SDS011;3733;47.994;8.820;2023-11-19T04:26:10;7.70;;;4.20;;
7383;SDS011;3733;47.994;8.820;2023-11-19T04:28:36;8.20;;;4.20;;
7383;SDS011;3733;47.994;8.820;2023-11-19T04:31:02;4.10;;;3.70;;
7383;SDS011;3733;47.994;8.820;2023-11-19T04:33:28;4.70;;;3.50;;
7383;SDS011;3733;47.994;8.820;2023-11-19T04:35:54;7.00;;;4.33;;
7383;SDS011;3733;47.994;8.820;2023-11-19T04:38:19;7.37;;;4.30;;
7383;SDS011;3733;47.994;8.820;2023-11-19T04:40:45;7.07;;;3.90;;
7383;SDS011;3733;47.994;8.820;2023-11-19T04:43:10;3.67;;;3.33;;
7383;SDS011;3733;47.994;8.820;2023-11-19T04:45:36;4.57;;;3.80;;
7383;SDS011;3733;47.994;8.820;2023-11-19T04:48:02;4.60;;;3.17;;
7383;SDS011;3733;47.994;8.820;2023-11-19T04:50:27;5.20;;;2.97;;
7383;SDS011;3733;47.994;8.820;2023-11-19T04:52:53;7.43;;;2.90;;
7383;SDS011;3733;47.994;8.820;2023-11-19T04:55:19;3.60;;;3.30;;
7383;SDS011;3733;47.994;8.820;2023-11-19T04:57:44;5.03;;;3.10;;
7383;SDS011;3733;47.994;8.820;2023-11-19T05:00:10;3.17;;;2.87;;
7383;SDS011;3733;47.994;8.820;2023-11-19T05:02:36;2.60;;;2.40;;
7383;SDS011;3733;47.994;8.820;2023-11-19T05:05:02;3.00;;;2.30;;
7383;SDS011;3733;47.994;8.820;2023-11-19T05:07:31;1.87;;;1.73;;
7383;SDS011;3733;47.994;8.820;2023-11-19T05:09:57;1.67;;;1.57;;
7383;SDS011;3733;47.994;8.820;2023-11-19T05:12:23;1.70;;;1.60;;
7383;SDS011;3733;47.994;8.820;2023-11-19T05:14:49;3.40;;;1.90;;
7383;SDS011;3733;47.994;8.820;2023-11-19T05:17:18;1.50;;;1.40;;
7383;SDS011;3733;47.994;8.820;2023-11-19T05:19:45;1.50;;;1.40;;
7383;SDS011;3733;47.994;8.820;2023-11-19T05:22:10;2.37;;;1.30;;
7383;SDS011;3733;47.994;8.820;2023-11-19T05:24:36;4.03;;;1.50;;
7383;SDS011;3733;47.994;8.820;2023-11-19T05:27:02;1.87;;;1.60;;
7383;SDS011;3733;47.994;8.820;2023-11-19T05:29:27;2.13;;;1.90;;
7383;SDS011;3733;47.994;8.820;2023-11-19T05:31:54;1.80;;;1.70;;
7383;SDS011;3733;47.994;8.820;2023-11-19T05:34:20;1.70;;;1.60;;
7383;SDS011;3733;47.994;8.820;2023-11-19T05:36:46;2.03;;;1.70;;
7383;SDS011;3733;47.994;8.820;2023-11-19T05:39:12;2.50;;;1.73;;
7383;SDS011;3733;47.994;8.820;2023-11-19T05:41:37;1.77;;;1.67;;
7383;SDS011;3733;47.994;8.820;2023-11-19T05:44:04;1.50;;;1.40;;
7383;SDS011;3733;47.994;8.820;2023-11-19T05:46:29;1.50;;;1.40;;
7383;SDS011;3733;47.994;8.820;2023-11-19T05:48:55;1.50;;;1.40;;
7383;SDS011;3733;47.994;8.820;2023-11-19T05:51:20;1.47;;;1.37;;
7383;SDS011;3733;47.994;8.820;2023-11-19T05:53:46;1.40;;;1.30;;
7383;SDS011;3733;47.994;8.820;2023-11-19T05:56:12;2.07;;;1.40;;
7383;SDS011;3733;47.994;8.820;2023-11-19T05:58:38;1.57;;;1.47;;
7383;SDS011;3733;47.994;8.820;2023-11-19T06:01:05;1.10;;;1.10;;
7383;SDS011;3733;47.994;8.820;2023-11-19T06:03:32;1.47;;;1.37;;
7383;SDS011;3733;47.994;8.820;2023-11-19T06:05:58;1.53;;;1.43;;
7383;SDS011;3733;47.994;8.820;2023-11-19T06:08:23;2.90;;;1.30;;
7383;SDS011;3733;47.994;8.820;2023-11-19T06:10:52;1.60;;;1.50;;
7383;SDS011;3733;47.994;8.820;2023-11-19T06:13:17;1.10;;;1.10;;
7383;SDS011;3733;47.994;8.820;2023-11-19T06:15:43;2.17;;;1.97;;
7383;SDS011;3733;47.994;8.820;2023-11-19T06:18:09;1.60;;;1.50;;
7383;SDS011;3733;47.994;8.820;2023-11-19T06:20:36;1.60;;;1.50;;
7383;SDS011;3733;47.994;8.820;2023-11-19T06:23:02;1.80;;;1.70;;
7383;SDS011;3733;47.994;8.820;2023-11-19T06:25:28;3.63;;;1.47;;
7383;SDS011;3733;47.994;8.820;2023-11-19T06:27:53;1.83;;;1.73;;
7383;SDS011;3733;47.994;8.820;2023-11-19T06:30:19;2.73;;;1.47;;
7383;SDS011;3733;47.994;8.820;2023-11-19T06:32:48;1.53;;;1.43;;
7383;SDS011;3733;47.994;8.820;2023-11-19T06:35:13;1.63;;;1.53;;
7383;SDS011;3733;47.994;8.820;2023-11-19T06:37:39;3.77;;;2.20;;
7383;SDS011;3733;47.994;8.820;2023-11-19T06:40:06;4.40;;;1.57;;
7383;SDS011;3733;47.994;8.820;2023-11-19T06:42:34;2.77;;;1.80;;
7383;SDS011;3733;47.994;8.820;2023-11-19T06:44:59;2.53;;;2.00;;
7383;SDS011;3733;47.994;8.820;2023-11-19T06:47:26;1.33;;;1.23;;
7383;SDS011;3733;47.994;8.820;2023-11-19T06:49:52;1.90;;;1.80;;
7383;SDS011;3733;47.994;8.820;2023-11-19T06:52:18;3.50;;;1.60;;
7383;SDS011;3733;47.994;8.820;2023-11-19T06:54:44;1.93;;;1.80;;
7383;SDS011;3733;47.994;8.820;2023-11-19T06:57:12;1.93;;;1.70;;
7383;SDS011;3733;47.994;8.820;2023-11-19T06:59:38;1.70;;;1.60;;
7383;SDS011;3733;47.994;8.820;2023-11-19T07:02:04;1.70;;;1.53;;
7383;SDS011;3733;47.994;8.820;2023-11-19T07:04:31;2.00;;;1.77;;
7383;SDS011;3733;47.994;8.820;2023-11-19T07:06:58;1.93;;;1.70;;
7383;SDS011;3733;47.994;8.820;2023-11-19T07:09:24;1.60;;;1.50;;
7383;SDS011;3733;47.994;8.820;2023-11-19T07:11:50;1.87;;;1.77;;
7383;SDS011;3733;47.994;8.820;2023-11-19T07:14:17;1.67;;;1.57;;
7383;SDS011;3733;47.994;8.820;2023-11-19T07:16:43;2.10;;;1.90;;
7383;SDS011;3733;47.994;8.820;2023-11-19T07:19:10;1.30;;;1.30;;
7383;SDS011;3733;47.994;8.820;2023-11-19T07:21:36;1.10;;;1.10;;
7383;SDS011;3733;47.994;8.820;2023-11-19T07:24:09;1.40;;;1.23;;
7383;SDS011;3733;47.994;8.820;2023-11-19T07:26:35;3.50;;;1.40;;
7383;SDS011;3733;47.994;8.820;2023-11-19T07:29:00;1.77;;;1.67;;
7383;SDS011;3733;47.994;8.820;2023-11-19T07:31:26;4.60;;;1.60;;
7383;SDS011;3733;47.994;8.820;2023-11-19T07:33:52;1.93;;;1.83;;
7383;SDS011;3733;47.994;8.820;2023-11-19T07:36:19;3.53;;;3.10;;
7383;SDS011;3733;47.994;8.820;2023-11-19T07:38:45;3.30;;;3.00;;
7383;SDS011;3733;47.994;8.820;2023-11-19T07:41:12;2.93;;;2.50;;
7383;SDS011;3733;47.994;8.820;2023-11-19T07:43:43;5.40;;;3.43;;
7383;SDS011;3733;47.994;8.820;2023-11-19T07:46:13;5.00;;;3.67;;
7383;SDS011;3733;47.994;8.820;2023-11-19T07:48:39;7.73;;;4.87;;
7383;SDS011;3733;47.994;8.820;2023-11-19T07:51:05;5.53;;;3.80;;
7383;SDS011;3733;47.994;8.820;2023-11-19T07:53:30;4.70;;;3.53;;
7383;SDS011;3733;47.994;8.820;2023-11-19T07:55:57;5.13;;;4.20;;
7383;SDS011;3733;47.994;8.820;2023-11-19T07:58:24;6.87;;;4.37;;
7383;SDS011;3733;47.994;8.820;2023-11-19T08:00:50;4.53;;;3.70;;
7383;SDS011;3733;47.994;8.820;2023-11-19T08:03:17;5.63;;;3.83;;
7383;SDS011;3733;47.994;8.820;2023-11-19T08:05:44;5.07;;;3.77;;
7383;SDS011;3733;47.994;8.820;2023-11-19T08:08:12;6.20;;;4.40;;
7383;SDS011;3733;47.994;8.820;2023-11-19T08:10:38;6.93;;;5.80;;
7383;SDS011;3733;47.994;8.820;2023-11-19T08:13:05;8.67;;;6.20;;
7383;SDS011;3733;47.994;8.820;2023-11-19T08:15:31;10.20;;;6.30;;
7383;SDS011;3733;47.994;8.820;2023-11-19T08:17:57;8.20;;;5.63;;
7383;SDS011;3733;47.994;8.820;2023-11-19T08:20:22;7.30;;;5.60;;
7383;SDS011;3733;47.994;8.820;2023-11-19T08:22:48;8.43;;;5.57;;
7383;SDS011;3733;47.994;8.820;2023-11-19T08:25:14;7.30;;;5.90;;
7383;SDS011;3733;47.994;8.820;2023-11-19T08:27:40;7.70;;;6.07;;
7383;SDS011;3733;47.994;8.820;2023-11-19T08:30:05;8.37;;;5.60;;
7383;SDS011;3733;47.994;8.820;2023-11-19T08:32:31;6.70;;;5.63;;
7383;SDS011;3733;47.994;8.820;2023-11-19T08:34:57;6.00;;;4.23;;
7383;SDS011;3733;47.994;8.820;2023-11-19T08:37:23;5.07;;;3.80;;
7383;SDS011;3733;47.994;8.820;2023-11-19T08:39:49;4.80;;;4.20;;
7383;SDS011;3733;47.994;8.820;2023-11-19T08:42:16;6.50;;;4.53;;
7383;SDS011;3733;47.994;8.820;2023-11-19T08:44:42;5.50;;;4.10;;
7383;SDS011;3733;47.994;8.820;2023-11-19T08:47:12;7.70;;;4.93;;
7383;SDS011;3733;47.994;8.820;2023-11-19T08:49:38;5.30;;;4.40;;
7383;SDS011;3733;47.994;8.820;2023-11-19T08:52:04;6.80;;;5.30;;
7383;SDS011;3733;47.994;8.820;2023-11-19T08:54:32;7.57;;;5.20;;
7383;SDS011;3733;47.994;8.820;2023-11-19T08:56:58;7.73;;;3.20;;
7383;SDS011;3733;47.994;8.820;2023-11-19T08:59:24;4.17;;;3.77;;
7383;SDS011;3733;47.994;8.820;2023-11-19T09:01:50;4.37;;;3.97;;
7383;SDS011;3733;47.994;8.820;2023-11-19T09:04:15;4.53;;;4.03;;
7383;SDS011;3733;47.994;8.820;2023-11-19T09:06:41;5.53;;;4.37;;
7383;SDS011;3733;47.994;8.820;2023-11-19T09:09:07;6.30;;;4.60;;
7383;SDS011;3733;47.994;8.820;2023-11-19T09:11:34;5.63;;;4.17;;
7383;SDS011;3733;47.994;8.820;2023-11-19T09:14:01;5.00;;;3.90;;
7383;SDS011;3733;47.994;8.820;2023-11-19T09:16:27;2.40;;;2.20;;
7383;SDS011;3733;47.994;8.820;2023-11-19T09:18:53;1.80;;;1.70;;
7383;SDS011;3733;47.994;8.820;2023-11-19T09:21:18;2.07;;;1.87;;
7383;SDS011;3733;47.994;8.820;2023-11-19T09:23:44;4.60;;;2.60;;
7383;SDS011;3733;47.994;8.820;2023-11-19T09:26:09;3.00;;;2.00;;
7383;SDS011;3733;47.994;8.820;2023-11-19T09:28:35;7.00;;;4.37;;
7383;SDS011;3733;47.994;8.820;2023-11-19T09:31:01;2.37;;;2.00;;
7383;SDS011;3733;47.994;8.820;2023-11-19T09:33:29;1.67;;;1.57;;
7383;SDS011;3733;47.994;8.820;2023-11-19T09:35:55;2.10;;;1.80;;
7383;SDS011;3733;47.994;8.820;2023-11-19T09:38:21;1.97;;;1.80;;
7383;SDS011;3733;47.994;8.820;2023-11-19T09:40:47;1.80;;;1.70;;
7383;SDS011;3733;47.994;8.820;2023-11-19T09:43:13;3.13;;;1.90;;
7383;SDS011;3733;47.994;8.820;2023-11-19T09:45:50;2.43;;;2.10;;
7383;SDS011;3733;47.994;8.820;2023-11-19T09:48:19;1.83;;;1.73;;
7383;SDS011;3733;47.994;8.820;2023-11-19T09:50:47;2.40;;;1.93;;
7383;SDS011;3733;47.994;8.820;2023-11-19T09:53:14;2.23;;;2.03;;
7383;SDS011;3733;47.994;8.820;2023-11-19T09:55:43;2.70;;;2.30;;
7383;SDS011;3733;47.994;8.820;2023-11-19T09:58:10;2.97;;;2.20;;
7383;SDS011;3733;47.994;8.820;2023-11-19T10:00:39;2.23;;;2.03;;
7383;SDS011;3733;47.994;8.820;2023-11-19T10:03:05;2.20;;;1.93;;
7383;SDS011;3733;47.994;8.820;2023-11-19T10:05:34;2.50;;;2.30;;
7383;SDS011;3733;47.994;8.820;2023-11-19T10:08:01;2.37;;;1.90;;
7383;SDS011;3733;47.994;8.820;2023-11-19T10:10:28;3.87;;;1.90;;
7383;SDS011;3733;47.994;8.820;2023-11-19T10:12:53;3.37;;;2.47;;
7383;SDS011;3733;47.994;8.820;2023-11-19T10:15:20;1.60;;;1.50;;
7383;SDS011;3733;47.994;8.820;2023-11-19T10:17:47;2.03;;;1.77;;
7383;SDS011;3733;47.994;8.820;2023-11-19T10:20:13;1.53;;;1.40;;
7383;SDS011;3733;47.994;8.820;2023-11-19T10:22:39;1.40;;;1.30;;
7383;SDS011;3733;47.994;8.820;2023-11-19T10:25:05;1.90;;;1.47;;
7383;SDS011;3733;47.994;8.820;2023-11-19T10:27:47;1.37;;;1.20;;
7383;SDS011;3733;47.994;8.820;2023-11-19T10:30:13;1.33;;;1.13;;
7383;SDS011;3733;47.994;8.820;2023-11-19T10:32:42;2.03;;;1.00;;
7383;SDS011;3733;47.994;8.820;2023-11-19T10:35:08;1.27;;;1.17;;
7383;SDS011;3733;47.994;8.820;2023-11-19T10:37:34;1.10;;;1.00;;
7383;SDS011;3733;47.994;8.820;2023-11-19T10:40:02;1.57;;;1.10;;
7383;SDS011;3733;47.994;8.820;2023-11-19T10:42:30;2.13;;;1.40;;
7383;SDS011;3733;47.994;8.820;2023-11-19T10:44:56;2.07;;;1.40;;
7383;SDS011;3733;47.994;8.820;2023-11-19T10:47:22;1.80;;;1.67;;
7383;SDS011;3733;47.994;8.820;2023-11-19T10:49:48;2.03;;;1.67;;
7383;SDS011;3733;47.994;8.820;2023-11-19T10:52:26;5.13;;;1.80;;
7383;SDS011;3733;47.994;8.820;2023-11-19T10:54:52;7.23;;;3.10;;
7383;SDS011;3733;47.994;8.820;2023-11-19T10:57:25;2.80;;;2.60;;
7383;SDS011;3733;47.994;8.820;2023-11-19T10:59:55;2.30;;;2.10;;
7383;SDS011;3733;47.994;8.820;2023-11-19T11:02:26;6.93;;;3.17;;
7383;SDS011;3733;47.994;8.820;2023-11-19T11:04:53;5.27;;;3.97;;
7383;SDS011;3733;47.994;8.820;2023-11-19T11:07:21;3.90;;;3.50;;
7383;SDS011;3733;47.994;8.820;2023-11-19T11:09:50;11.90;;;4.97;;
7383;SDS011;3733;47.994;8.820;2023-11-19T11:12:17;7.43;;;3.97;;
7383;SDS011;3733;47.994;8.820;2023-11-19T11:14:46;3.23;;;2.90;;
7383;SDS011;3733;47.994;8.820;2023-11-19T11:17:13;6.13;;;3.70;;
7383;SDS011;3733;47.994;8.820;2023-11-19T11:19:43;3.23;;;2.80;;
7383;SDS011;3733;47.994;8.820;2023-11-19T11:22:09;4.90;;;3.00;;
7383;SDS011;3733;47.994;8.820;2023-11-19T11:30:39;2.63;;;2.40;;
7383;SDS011;3733;47.994;8.820;2023-11-19T11:38:44;1.10;;;1.00;;
7383;SDS011;3733;47.994;8.820;2023-11-19T11:41:17;1.83;;;1.10;;
7383;SDS011;3733;47.994;8.820;2023-11-19T11:49:02;2.43;;;1.10;;
7383;SDS011;3733;47.994;8.820;2023-11-19T11:54:10;1.27;;;1.17;;
7383;SDS011;3733;47.994;8.820;2023-11-19T12:02:11;1.20;;;1.10;;
7383;SDS011;3733;47.994;8.820;2023-11-19T12:04:39;1.07;;;0.97;;
7383;SDS011;3733;47.994;8.820;2023-11-19T12:07:11;1.10;;;1.00;;
7383;SDS011;3733;47.994;8.820;2023-11-19T12:09:41;1.30;;;1.03;;
7383;SDS011;3733;47.994;8.820;2023-11-19T12:12:17;1.10;;;1.00;;
7383;SDS011;3733;47.994;8.820;2023-11-19T12:19:59;1.17;;;1.00;;
7383;SDS011;3733;47.994;8.820;2023-11-19T12:22:26;4.20;;;1.00;;
7383;SDS011;3733;47.994;8.820;2023-11-19T12:24:53;2.20;;;0.90;;
7383;SDS011;3733;47.994;8.820;2023-11-19T12:27:19;3.00;;;1.10;;
7383;SDS011;3733;47.994;8.820;2023-11-19T12:29:47;1.27;;;1.17;;
7383;SDS011;3733;47.994;8.820;2023-11-19T12:32:13;1.20;;;1.10;;
7383;SDS011;3733;47.994;8.820;2023-11-19T12:34:39;1.67;;;0.93;;
7383;SDS011;3733;47.994;8.820;2023-11-19T12:37:04;4.93;;;1.10;;
7383;SDS011;3733;47.994;8.820;2023-11-19T12:39:31;2.20;;;1.13;;
7383;SDS011;3733;47.994;8.820;2023-11-19T12:41:57;2.90;;;1.90;;
7383;SDS011;3733;47.994;8.820;2023-11-19T12:44:24;1.20;;;1.10;;
7383;SDS011;3733;47.994;8.820;2023-11-19T12:47:06;1.47;;;1.30;;
7383;SDS011;3733;47.994;8.820;2023-11-19T12:49:32;1.33;;;1.23;;
7383;SDS011;3733;47.994;8.820;2023-11-19T12:51:59;2.37;;;1.40;;
7383;SDS011;3733;47.994;8.820;2023-11-19T12:54:37;1.80;;;1.50;;
7383;SDS011;3733;47.994;8.820;2023-11-19T12:57:03;1.47;;;1.37;;
7383;SDS011;3733;47.994;8.820;2023-11-19T12:59:30;1.07;;;0.90;;
7383;SDS011;3733;47.994;8.820;2023-11-19T13:04:22;1.87;;;1.27;;
7383;SDS011;3733;47.994;8.820;2023-11-19T13:06:49;3.33;;;2.80;;
7383;SDS011;3733;47.994;8.820;2023-11-19T13:09:22;7.47;;;1.53;;
7383;SDS011;3733;47.994;8.820;2023-11-19T13:11:48;1.93;;;0.90;;
7383;SDS011;3733;47.994;8.820;2023-11-19T13:14:14;1.17;;;0.93;;
7383;SDS011;3733;47.994;8.820;2023-11-19T13:16:39;1.40;;;1.10;;
7383;SDS011;3733;47.994;8.820;2023-11-19T13:19:05;0.87;;;0.87;;
7383;SDS011;3733;47.994;8.820;2023-11-19T13:21:31;1.63;;;1.50;;
7383;SDS011;3733;47.994;8.820;2023-11-19T13:23:56;1.47;;;1.23;;
7383;SDS011;3733;47.994;8.820;2023-11-19T13:26:22;0.90;;;0.90;;
7383;SDS011;3733;47.994;8.820;2023-11-19T13:28:48;1.23;;;1.13;;
7383;SDS011;3733;47.994;8.820;2023-11-19T13:31:14;1.30;;;1.20;;
7383;SDS011;3733;47.994;8.820;2023-11-19T13:33:40;1.80;;;1.50;;
7383;SDS011;3733;47.994;8.820;2023-11-19T13:36:06;3.93;;;1.60;;
7383;SDS011;3733;47.994;8.820;2023-11-19T13:38:36;1.77;;;1.50;;
7383;SDS011;3733;47.994;8.820;2023-11-19T13:41:05;1.53;;;1.20;;
7383;SDS011;3733;47.994;8.820;2023-11-19T13:43:31;2.43;;;1.30;;
7383;SDS011;3733;47.994;8.820;2023-11-19T13:45:57;4.53;;;1.63;;
7383;SDS011;3733;47.994;8.820;2023-11-19T13:48:23;1.90;;;1.50;;
7383;SDS011;3733;47.994;8.820;2023-11-19T13:50:49;2.80;;;2.20;;
7383;SDS011;3733;47.994;8.820;2023-11-19T13:53:15;2.50;;;1.30;;
7383;SDS011;3733;47.994;8.820;2023-11-19T13:55:41;2.57;;;1.80;;
7383;SDS011;3733;47.994;8.820;2023-11-19T13:58:08;1.50;;;1.40;;
7383;SDS011;3733;47.994;8.820;2023-11-19T14:00:34;2.03;;;1.10;;
7383;SDS011;3733;47.994;8.820;2023-11-19T14:02:59;1.70;;;1.60;;
7383;SDS011;3733;47.994;8.820;2023-11-19T14:05:25;1.13;;;1.00;;
7383;SDS011;3733;47.994;8.820;2023-11-19T14:07:51;2.23;;;1.20;;
7383;SDS011;3733;47.994;8.820;2023-11-19T14:10:18;1.60;;;1.50;;
7383;SDS011;3733;47.994;8.820;2023-11-19T14:12:44;1.70;;;1.20;;
7383;SDS011;3733;47.994;8.820;2023-11-19T14:15:10;1.40;;;1.30;;
7383;SDS011;3733;47.994;8.820;2023-11-19T14:17:39;1.40;;;1.30;;
7383;SDS011;3733;47.994;8.820;2023-11-19T14:20:05;2.23;;;1.77;;
7383;SDS011;3733;47.994;8.820;2023-11-19T14:22:46;3.00;;;1.67;;
7383;SDS011;3733;47.994;8.820;2023-11-19T14:25:14;2.10;;;1.30;;
7383;SDS011;3733;47.994;8.820;2023-11-19T14:27:41;2.00;;;1.57;;
7383;SDS011;3733;47.994;8.820;2023-11-19T14:30:08;1.80;;;1.33;;
7383;SDS011;3733;47.994;8.820;2023-11-19T14:32:36;1.80;;;1.70;;
7383;SDS011;3733;47.994;8.820;2023-11-19T14:35:03;2.37;;;1.40;;
7383;SDS011;3733;47.994;8.820;2023-11-19T14:37:29;1.20;;;1.10;;
7383;SDS011;3733;47.994;8.820;2023-11-19T14:39:58;1.03;;;1.03;;
7383;SDS011;3733;47.994;8.820;2023-11-19T14:42:24;1.60;;;1.40;;
7383;SDS011;3733;47.994;8.820;2023-11-19T14:44:50;6.37;;;2.93;;
7383;SDS011;3733;47.994;8.820;2023-11-19T14:47:18;2.50;;;2.27;;
7383;SDS011;3733;47.994;8.820;2023-11-19T14:49:44;1.37;;;1.27;;
7383;SDS011;3733;47.994;8.820;2023-11-19T14:52:10;3.80;;;2.00;;
7383;SDS011;3733;47.994;8.820;2023-11-19T14:54:36;2.03;;;1.30;;
7383;SDS011;3733;47.994;8.820;2023-11-19T14:57:03;1.20;;;1.10;;
7383;SDS011;3733;47.994;8.820;2023-11-19T14:59:29;1.30;;;1.00;;
7383;SDS011;3733;47.994;8.820;2023-11-19T15:01:55;1.67;;;1.10;;
7383;SDS011;3733;47.994;8.820;2023-11-19T15:04:20;1.20;;;1.10;;
7383;SDS011;3733;47.994;8.820;2023-11-19T15:06:46;2.50;;;1.30;;
7383;SDS011;3733;47.994;8.820;2023-11-19T15:09:11;1.20;;;1.10;;
7383;SDS011;3733;47.994;8.820;2023-11-19T15:11:43;1.30;;;1.20;;
7383;SDS011;3733;47.994;8.820;2023-11-19T15:14:11;1.47;;;1.20;;
7383;SDS011;3733;47.994;8.820;2023-11-19T15:16:44;2.37;;;1.33;;
7383;SDS011;3733;47.994;8.820;2023-11-19T15:19:10;1.20;;;1.10;;
7383;SDS011;3733;47.994;8.820;2023-11-19T15:21:39;2.03;;;1.20;;
7383;SDS011;3733;47.994;8.820;2023-11-19T15:24:07;1.10;;;1.10;;
7383;SDS011;3733;47.994;8.820;2023-11-19T15:26:33;4.83;;;1.23;;
7383;SDS011;3733;47.994;8.820;2023-11-19T15:29:00;1.30;;;1.20;;
7383;SDS011;3733;47.994;8.820;2023-11-19T15:31:26;1.60;;;1.43;;
7383;SDS011;3733;47.994;8.820;2023-11-19T15:33:51;1.77;;;1.57;;
7383;SDS011;3733;47.994;8.820;2023-11-19T15:36:17;1.67;;;1.57;;
7383;SDS011;3733;47.994;8.820;2023-11-19T15:38:43;3.30;;;2.10;;
7383;SDS011;3733;47.994;8.820;2023-11-19T15:41:09;2.47;;;2.07;;
7383;SDS011;3733;47.994;8.820;2023-11-19T15:43:35;1.87;;;1.20;;
7383;SDS011;3733;47.994;8.820;2023-11-19T15:46:01;1.37;;;1.27;;
7383;SDS011;3733;47.994;8.820;2023-11-19T15:48:30;1.03;;;0.93;;